Sandwich, IL (60548)

8:03 AM CST on December 06, 2016 (GMT -0600)
Plano/Sandwich, IL | | Change Station
Active Advisory: Dense Fog Advisory

Elev 666 ft 41.66 °N, 88.59 °W | Updated 19 seconds ago

Light Freezing Fog
Freezing Fog
25.2 °F
Feels Like 25 °F
N
0.0
Wind Variable Wind from WNW

Today
High -- | Low -- °F
--% Chance of Precip.
Yesterday
High -- | Low -- °F
Precip. -- in
Pressure 29.82 in
Visibility 0.2 miles
Clouds
Windchill 25 °F
Dew Point 23 °F
Humidity 93%
Rainfall 0.00 in
Snow Depth Not available.
7:07 AM 4:24 PM
Waxing Crescent, 42% visible
METAR KARR 061352Z 31003KT M1/4SM FZFG VV002 M03/M04 A2979 RMK AO2 SLP096 I1000 T10281044
Pressure 29.82 in
Visibility 0.2 miles
Clouds
Windchill 25 °F
Dew Point 23 °F
Humidity 93%
Rainfall 0.00 in
Snow Depth Not available.
7:07 AM 4:24 PM
Waxing Crescent, 42% visible
METAR KARR 061352Z 31003KT M1/4SM FZFG VV002 M03/M04 A2979 RMK AO2 SLP096 I1000 T10281044

10-Day Weather Forecast

Almanac

Astronomy

Dec. 06, 2016 Rise Set
Actual Time
Civil Twilight
Nautical Twilight
Astronomical Twilight
Moon
Length of Visible Light
Length of Day
Tomorrow will be .
, % of the Moon is Illuminated

Today's Extremes

State Highs State Lows

Community

WunderPhotos

Upload Photos

1,955,949 photos uploaded!

WunderBlog® & News

Nearby

Air Quality

  Air Quality AQ Index Pollutant
Not available.

Snow Depth

Station Depth Elevation

Earthquake Activity

City Distance Mag. Time & Date
Minimum magnitude displayed is 2.5.

Coastal Water Temperatures

Place Temperature

Stations

Nearby Weather Stations

Station Location Temp. Windchill Dew Point Humidity Wind Precip. Elev Updated Type
                   

Watches & Warnings

Dense Fog Advisory
Issued: 5:46 AM CST Dec. 6, 2016 – National Weather Service

... Dense fog advisory in effect until 11 am CST this morning...

The National Weather Service in Chicago has issued a dense fog
advisory... which is in effect until 11 am CST this morning.

* Visibility... one quarter mile or less, with widely varying
visibility and improved conditions including across more urban
locations of Cook County.

* Impacts... temperatures near freezing may result in fog freezing
on elevated surfaces... including vehicle mirrors... and possibly
on roads creating slick conditions. Temperatures will rise to
above freezing later this morning. Otherwise... severely reduced
visibilities will make driving difficult.


Precautionary/preparedness actions...

A dense fog advisory means visibilities will frequently be
reduced to less than one quarter mile. If driving... slow down...
use your headlights... and leave plenty of distance ahead of you.



Kmd